Time;durP1;ratioP1;P1;durP2;ratioP2;P2;SDS_P1;SDS_P2;PMS_P1;PMS_P2;Temp;Humidity;BMP_temperature;BMP_pressure;BME280_temperature;BME280_humidity;BME280_pressure;Samples;Min_cycle;Max_cycle;Signal;HPM_P1;HPM_P2
2022/06/07 00:01:11;;;;;;;15.10;7.20;;;;;;;;;;5045260;28;20517;-84
2022/06/07 00:03:37;;;;;;;13.82;6.70;;;;;;;;;;5044821;28;20049;-85
2022/06/07 00:06:04;;;;;;;10.73;6.32;;;;;;;;;;5033003;28;20044;-85
2022/06/07 00:08:31;;;;;;;11.40;5.95;;;;;;;;;;5035988;28;20511;-84
2022/06/07 00:10:57;;;;;;;10.80;5.93;;;;;;;;;;5036741;28;20409;-84
2022/06/07 00:13:23;;;;;;;9.95;6.15;;;;;;;;;;5038962;28;20046;-84
2022/06/07 00:15:49;;;;;;;13.43;6.55;;;;;;;;;;5028257;28;20048;-85
2022/06/07 00:18:15;;;;;;;13.13;6.60;;;;;;;;;;5027810;28;20057;-84
2022/06/07 00:20:42;;;;;;;17.20;6.35;;;;;;;;;;5030231;28;20402;-84
2022/06/07 00:23:11;;;;;;;10.95;6.07;;;;;;;;;;5030501;28;20060;-86
2022/06/07 00:25:37;;;;;;;11.30;5.75;;;;;;;;;;5043320;28;20057;-85
2022/06/07 00:28:03;;;;;;;12.55;5.68;;;;;;;;;;5045657;28;20044;-85
2022/06/07 00:30:30;;;;;;;11.45;5.60;;;;;;;;;;5044512;28;20496;-86
2022/06/07 00:32:56;;;;;;;14.65;6.20;;;;;;;;;;5029813;28;20037;-85
2022/06/07 00:35:22;;;;;;;11.25;5.68;;;;;;;;;;5028888;28;20171;-85
2022/06/07 00:37:49;;;;;;;11.25;5.57;;;;;;;;;;5030794;28;20116;-85
2022/06/07 00:40:15;;;;;;;16.08;5.90;;;;;;;;;;5049149;28;20138;-85
2022/06/07 00:42:42;;;;;;;12.55;6.07;;;;;;;;;;5043636;28;20052;-85
2022/06/07 00:45:13;;;;;;;9.57;5.55;;;;;;;;;;5048787;28;20485;-85
2022/06/07 00:47:39;;;;;;;11.65;5.95;;;;;;;;;;5038987;28;20545;-85
2022/06/07 00:50:16;;;;;;;14.30;5.93;;;;;;;;;;5027754;28;20486;-85
2022/06/07 00:52:42;;;;;;;13.55;5.90;;;;;;;;;;5029935;28;20127;-85
2022/06/07 00:55:09;;;;;;;8.68;5.70;;;;;;;;;;5038321;28;20053;-85
2022/06/07 00:57:35;;;;;;;12.25;5.85;;;;;;;;;;5048422;28;20492;-85
2022/06/07 01:00:03;;;;;;;12.30;5.97;;;;;;;;;;5035710;28;20131;-85
2022/06/07 01:02:29;;;;;;;9.55;5.65;;;;;;;;;;5041585;28;20095;-86
2022/06/07 01:04:55;;;;;;;13.30;6.65;;;;;;;;;;5029247;28;20054;-85
2022/06/07 01:12:51;;;;;;;12.50;6.63;;;;;;;;;;5054146;28;20051;-85
2022/06/07 01:15:17;;;;;;;10.40;5.50;;;;;;;;;;5029446;28;20056;-85
2022/06/07 01:17:43;;;;;;;11.82;6.22;;;;;;;;;;5066768;28;20049;-85
2022/06/07 01:20:09;;;;;;;10.52;6.22;;;;;;;;;;5058790;28;20125;-85
2022/06/07 01:22:36;;;;;;;16.88;6.00;;;;;;;;;;5058283;28;20044;-86
2022/06/07 01:25:02;;;;;;;13.93;6.35;;;;;;;;;;5052564;28;20518;-85
2022/06/07 01:27:29;;;;;;;11.30;6.18;;;;;;;;;;5055221;28;20402;-85
2022/06/07 01:29:55;;;;;;;11.00;5.65;;;;;;;;;;5051826;28;20533;-85
2022/06/07 01:32:21;;;;;;;10.38;4.90;;;;;;;;;;5068971;28;20415;-85
2022/06/07 01:34:47;;;;;;;10.45;5.13;;;;;;;;;;5065325;28;20060;-85
2022/06/07 01:37:14;;;;;;;12.77;6.18;;;;;;;;;;5060869;28;20045;-85
2022/06/07 01:42:25;;;;;;;12.75;6.43;;;;;;;;;;5051365;28;20084;-83
2022/06/07 01:44:52;;;;;;;14.98;6.60;;;;;;;;;;5052793;28;20397;-85
2022/06/07 01:47:22;;;;;;;17.42;6.80;;;;;;;;;;5065477;28;20370;-85
2022/06/07 01:49:49;;;;;;;15.63;6.85;;;;;;;;;;5071617;28;20048;-85
2022/06/07 01:52:17;;;;;;;15.02;6.63;;;;;;;;;;5060672;28;20052;-85
2022/06/07 01:54:43;;;;;;;14.05;6.95;;;;;;;;;;5051568;28;20048;-85
2022/06/07 01:57:09;;;;;;;13.20;6.32;;;;;;;;;;5059616;28;20049;-83
2022/06/07 01:59:38;;;;;;;12.05;6.07;;;;;;;;;;5052834;28;20040;-83
2022/06/07 02:02:05;;;;;;;15.13;6.80;;;;;;;;;;5050082;28;20049;-84
2022/06/07 02:04:31;;;;;;;14.68;6.65;;;;;;;;;;5051123;28;20045;-84
2022/06/07 02:06:57;;;;;;;12.02;6.55;;;;;;;;;;5053126;28;20701;-83
2022/06/07 02:09:23;;;;;;;15.57;6.50;;;;;;;;;;5072710;28;20064;-83
2022/06/07 02:11:49;;;;;;;13.88;6.40;;;;;;;;;;5057915;28;20045;-83
2022/06/07 02:14:15;;;;;;;14.38;6.70;;;;;;;;;;5054464;28;20124;-83
2022/06/07 02:16:41;;;;;;;12.32;6.30;;;;;;;;;;5050055;28;20051;-83
2022/06/07 02:19:08;;;;;;;13.07;7.07;;;;;;;;;;5070874;28;20083;-83
2022/06/07 02:21:34;;;;;;;15.55;6.70;;;;;;;;;;5063656;28;20048;-83
2022/06/07 02:24:00;;;;;;;14.02;6.88;;;;;;;;;;5068953;28;20631;-83
2022/06/07 02:26:33;;;;;;;13.48;6.72;;;;;;;;;;5071872;28;20060;-83
2022/06/07 02:29:00;;;;;;;14.73;6.32;;;;;;;;;;5070506;28;20050;-83
2022/06/07 02:31:27;;;;;;;18.42;6.43;;;;;;;;;;5072566;28;20164;-83
2022/06/07 02:33:54;;;;;;;11.85;5.97;;;;;;;;;;5058248;28;20053;-83
2022/06/07 02:36:20;;;;;;;13.70;5.75;;;;;;;;;;5049018;28;20080;-83
2022/06/07 02:38:46;;;;;;;11.57;5.70;;;;;;;;;;5069484;28;20040;-83
2022/06/07 02:41:15;;;;;;;15.88;5.55;;;;;;;;;;5060650;28;20044;-83
2022/06/07 02:43:41;;;;;;;12.50;6.05;;;;;;;;;;5049443;28;20060;-83
2022/06/07 02:46:07;;;;;;;18.35;5.78;;;;;;;;;;5051604;28;20052;-83
2022/06/07 02:48:33;;;;;;;12.10;5.70;;;;;;;;;;5067365;28;20048;-83
2022/06/07 02:50:59;;;;;;;16.90;6.50;;;;;;;;;;5064909;28;20048;-83
2022/06/07 02:53:25;;;;;;;17.50;6.00;;;;;;;;;;5064735;28;20079;-83
2022/06/07 02:55:51;;;;;;;14.95;6.82;;;;;;;;;;5070150;28;20048;-83
2022/06/07 02:58:17;;;;;;;15.98;6.65;;;;;;;;;;5068804;28;20116;-83
2022/06/07 03:00:44;;;;;;;19.08;6.90;;;;;;;;;;5070051;28;20194;-83
2022/06/07 03:03:11;;;;;;;18.42;6.93;;;;;;;;;;5054670;28;20064;-83
2022/06/07 03:05:37;;;;;;;18.98;6.93;;;;;;;;;;5049390;28;20146;-83
2022/06/07 03:08:03;;;;;;;12.95;6.13;;;;;;;;;;5061471;28;20087;-83
2022/06/07 03:10:29;;;;;;;14.57;6.70;;;;;;;;;;5056331;28;20410;-83
2022/06/07 03:12:55;;;;;;;17.55;6.97;;;;;;;;;;5051861;28;20134;-83
2022/06/07 03:15:21;;;;;;;16.58;6.88;;;;;;;;;;5050314;28;20179;-83
2022/06/07 03:17:47;;;;;;;15.00;6.72;;;;;;;;;;5059292;28;20056;-83
2022/06/07 03:20:13;;;;;;;19.75;6.88;;;;;;;;;;5066448;28;20425;-83
2022/06/07 03:22:40;;;;;;;15.68;7.20;;;;;;;;;;5047838;28;20485;-83
2022/06/07 03:25:07;;;;;;;13.90;6.90;;;;;;;;;;5062601;28;20144;-83
2022/06/07 03:27:35;;;;;;;15.45;6.68;;;;;;;;;;5065766;28;20044;-82
2022/06/07 03:30:01;;;;;;;12.60;7.03;;;;;;;;;;5070674;28;20127;-83
2022/06/07 03:32:27;;;;;;;14.82;5.88;;;;;;;;;;5068075;28;20080;-83
2022/06/07 03:34:53;;;;;;;17.60;6.30;;;;;;;;;;5058936;28;20080;-83
2022/06/07 03:37:19;;;;;;;13.32;6.47;;;;;;;;;;5049577;28;20067;-83
2022/06/07 03:39:45;;;;;;;17.13;6.35;;;;;;;;;;5050542;28;20033;-82
2022/06/07 03:42:12;;;;;;;12.20;5.90;;;;;;;;;;5060805;28;20044;-83
2022/06/07 03:44:38;;;;;;;17.65;7.38;;;;;;;;;;5070398;28;20045;-83
2022/06/07 03:47:05;;;;;;;14.20;6.60;;;;;;;;;;5064802;28;20097;-83
2022/06/07 03:49:31;;;;;;;17.65;6.75;;;;;;;;;;5070778;28;20047;-83
2022/06/07 03:51:58;;;;;;;17.05;6.43;;;;;;;;;;5060075;28;20105;-83
2022/06/07 03:54:24;;;;;;;14.75;6.45;;;;;;;;;;5069728;28;20056;-83
2022/06/07 03:56:50;;;;;;;17.23;6.88;;;;;;;;;;5067744;28;20048;-83
2022/06/07 03:59:16;;;;;;;11.95;6.15;;;;;;;;;;5068643;28;20045;-83
2022/06/07 04:01:42;;;;;;;16.08;7.35;;;;;;;;;;5068956;28;20048;-83
2022/06/07 04:04:10;;;;;;;14.63;6.80;;;;;;;;;;5063099;28;20065;-83
2022/06/07 04:06:41;;;;;;;13.60;6.90;;;;;;;;;;5048493;28;20044;-83
2022/06/07 04:09:07;;;;;;;15.77;7.00;;;;;;;;;;5049652;28;20370;-83
2022/06/07 04:11:34;;;;;;;13.80;6.45;;;;;;;;;;5056697;28;20040;-83
2022/06/07 04:14:00;;;;;;;14.32;6.28;;;;;;;;;;5050100;28;20783;-83
2022/06/07 04:16:28;;;;;;;15.80;7.20;;;;;;;;;;5054515;28;20151;-83
2022/06/07 04:18:54;;;;;;;20.02;6.75;;;;;;;;;;5051894;28;20040;-83
2022/06/07 04:21:21;;;;;;;17.73;6.45;;;;;;;;;;5059106;28;20049;-83
2022/06/07 04:23:47;;;;;;;16.65;6.25;;;;;;;;;;5048677;28;20048;-83
2022/06/07 04:26:18;;;;;;;13.65;6.20;;;;;;;;;;5051110;28;20490;-83
2022/06/07 04:28:44;;;;;;;12.63;4.95;;;;;;;;;;5040116;28;20041;-83
2022/06/07 04:31:11;;;;;;;11.15;5.72;;;;;;;;;;5041128;28;20053;-83
2022/06/07 04:33:37;;;;;;;10.25;4.32;;;;;;;;;;5068801;28;20044;-83
2022/06/07 04:36:03;;;;;;;8.98;4.00;;;;;;;;;;5050229;28;20399;-83
2022/06/07 04:38:30;;;;;;;7.60;3.38;;;;;;;;;;5068668;28;20044;-83
2022/06/07 04:40:56;;;;;;;10.55;4.10;;;;;;;;;;5065201;28;20049;-83
2022/06/07 04:43:22;;;;;;;10.18;3.55;;;;;;;;;;5068487;28;20551;-83
2022/06/07 04:45:50;;;;;;;9.32;3.05;;;;;;;;;;5060771;28;20444;-83
2022/06/07 04:48:16;;;;;;;9.63;3.50;;;;;;;;;;5065569;28;20056;-83
2022/06/07 04:50:42;;;;;;;7.90;3.25;;;;;;;;;;5068142;28;20060;-85
2022/06/07 04:53:08;;;;;;;9.45;3.45;;;;;;;;;;5067866;28;20079;-85
2022/06/07 04:55:34;;;;;;;13.27;3.38;;;;;;;;;;5069607;28;20045;-85
2022/06/07 04:58:00;;;;;;;8.30;2.90;;;;;;;;;;5056681;28;20049;-85
2022/06/07 05:00:26;;;;;;;5.28;2.70;;;;;;;;;;5053278;28;20037;-85
2022/06/07 05:02:53;;;;;;;8.10;2.85;;;;;;;;;;5052447;28;20045;-85
2022/06/07 05:05:21;;;;;;;7.93;2.80;;;;;;;;;;5051661;28;20052;-85
2022/06/07 05:07:47;;;;;;;10.65;3.00;;;;;;;;;;5062189;28;20474;-85
2022/06/07 05:10:16;;;;;;;9.27;3.28;;;;;;;;;;5052921;28;20053;-85
2022/06/07 05:12:42;;;;;;;9.75;2.80;;;;;;;;;;5062543;28;20404;-85
2022/06/07 05:15:09;;;;;;;7.93;2.80;;;;;;;;;;5071933;28;20766;-85
2022/06/07 05:17:35;;;;;;;8.43;3.00;;;;;;;;;;5067832;28;20040;-85
2022/06/07 05:20:01;;;;;;;11.80;3.38;;;;;;;;;;5072626;28;20045;-85
2022/06/07 05:22:27;;;;;;;8.45;3.00;;;;;;;;;;5064001;28;20041;-85
2022/06/07 05:24:53;;;;;;;8.55;2.80;;;;;;;;;;5050798;28;20048;-85
2022/06/07 05:27:21;;;;;;;12.65;3.20;;;;;;;;;;5059347;28;20477;-85
2022/06/07 05:29:48;;;;;;;12.43;3.20;;;;;;;;;;5073416;28;20051;-86
2022/06/07 05:32:15;;;;;;;7.45;3.70;;;;;;;;;;5071465;28;20402;-84
2022/06/07 05:34:41;;;;;;;9.95;3.30;;;;;;;;;;5060906;28;20051;-84
2022/06/07 05:37:07;;;;;;;10.32;3.40;;;;;;;;;;5057037;28;20052;-83
2022/06/07 05:39:33;;;;;;;14.43;3.38;;;;;;;;;;5052554;28;20040;-84
2022/06/07 05:42:00;;;;;;;10.32;3.33;;;;;;;;;;5054373;28;20472;-83
2022/06/07 05:44:27;;;;;;;10.55;3.05;;;;;;;;;;5071837;28;20108;-84
2022/06/07 05:46:53;;;;;;;7.97;2.95;;;;;;;;;;5052680;28;20048;-82
2022/06/07 05:49:20;;;;;;;9.32;3.60;;;;;;;;;;5072610;28;20036;-83
2022/06/07 05:51:46;;;;;;;9.57;3.65;;;;;;;;;;5070479;28;20041;-83
2022/06/07 05:54:13;;;;;;;12.75;3.80;;;;;;;;;;5053553;28;20053;-83
2022/06/07 05:56:39;;;;;;;8.80;3.30;;;;;;;;;;5052183;28;20480;-83
2022/06/07 05:59:05;;;;;;;12.85;3.58;;;;;;;;;;5072353;28;20512;-85
2022/06/07 06:01:32;;;;;;;10.77;3.60;;;;;;;;;;5070824;28;20040;-83
2022/06/07 06:03:58;;;;;;;11.63;3.50;;;;;;;;;;5051853;28;20051;-83
2022/06/07 06:06:25;;;;;;;12.05;3.40;;;;;;;;;;5036049;22;20054;-74
2022/06/07 06:11:37;;;;;;;9.60;3.22;;;;;;;;;;5027370;28;20058;-74
2022/06/07 06:14:03;;;;;;;6.82;2.90;;;;;;;;;;5009800;28;20046;-74
2022/06/07 06:16:30;;;;;;;9.57;3.00;;;;;;;;;;5006566;28;20141;-74
2022/06/07 06:18:57;;;;;;;10.63;2.67;;;;;;;;;;5010578;28;20055;-74
2022/06/07 06:21:28;;;;;;;8.07;2.80;;;;;;;;;;5009117;28;20054;-74
2022/06/07 06:23:58;;;;;;;8.02;2.60;;;;;;;;;;5023802;28;20069;-74
2022/06/07 06:26:24;;;;;;;7.38;2.90;;;;;;;;;;5008642;28;20065;-73
2022/06/07 06:28:50;;;;;;;13.10;3.55;;;;;;;;;;5015699;28;20065;-73
2022/06/07 06:31:16;;;;;;;11.95;3.15;;;;;;;;;;5013673;28;20058;-75
2022/06/07 06:33:44;;;;;;;14.68;2.75;;;;;;;;;;5017878;28;20054;-73
2022/06/07 06:36:11;;;;;;;11.48;2.80;;;;;;;;;;5016713;28;20056;-74
2022/06/07 06:38:38;;;;;;;7.25;2.25;;;;;;;;;;5021057;28;20042;-74
2022/06/07 06:41:11;;;;;;;8.45;2.58;;;;;;;;;;5011387;28;20046;-74
2022/06/07 06:43:38;;;;;;;8.82;2.53;;;;;;;;;;5027741;28;20100;-74
2022/06/07 06:46:04;;;;;;;11.40;2.63;;;;;;;;;;5017841;28;20026;-75
2022/06/07 06:48:30;;;;;;;17.50;3.05;;;;;;;;;;5026220;28;20049;-75
2022/06/07 06:51:00;;;;;;;8.80;2.40;;;;;;;;;;5028096;28;20041;-75
2022/06/07 06:53:27;;;;;;;8.57;2.65;;;;;;;;;;5024109;28;20042;-74
2022/06/07 06:55:55;;;;;;;8.50;2.30;;;;;;;;;;5018565;28;20101;-74
2022/06/07 06:58:21;;;;;;;12.27;3.15;;;;;;;;;;5014922;28;20038;-74
2022/06/07 07:00:49;;;;;;;9.18;2.78;;;;;;;;;;5031562;28;20514;-74
2022/06/07 07:03:15;;;;;;;9.73;2.75;;;;;;;;;;5028667;28;20056;-73
2022/06/07 07:05:42;;;;;;;7.90;2.72;;;;;;;;;;5029937;28;20077;-74
2022/06/07 07:08:10;;;;;;;10.38;2.78;;;;;;;;;;5010593;28;20054;-74
2022/06/07 07:10:36;;;;;;;8.07;2.75;;;;;;;;;;5019532;28;20106;-74
2022/06/07 07:13:02;;;;;;;10.90;3.10;;;;;;;;;;5023239;28;20042;-75
2022/06/07 07:15:28;;;;;;;7.45;2.42;;;;;;;;;;5011668;28;20106;-74
2022/06/07 07:17:54;;;;;;;7.72;2.35;;;;;;;;;;5005657;28;20081;-75
2022/06/07 07:20:20;;;;;;;8.23;2.30;;;;;;;;;;5024617;28;20050;-81
2022/06/07 07:22:46;;;;;;;6.93;2.63;;;;;;;;;;5002608;28;20086;-77
2022/06/07 07:25:12;;;;;;;4.60;2.00;;;;;;;;;;5011802;28;20475;-74
2022/06/07 07:27:38;;;;;;;7.05;2.13;;;;;;;;;;5026532;28;20085;-74
2022/06/07 07:30:05;;;;;;;6.75;2.22;;;;;;;;;;5029916;28;20046;-74
2022/06/07 07:32:31;;;;;;;7.80;2.40;;;;;;;;;;5022398;28;20052;-74
2022/06/07 07:34:57;;;;;;;7.88;2.63;;;;;;;;;;5003209;28;20487;-74
2022/06/07 07:37:23;;;;;;;7.97;2.90;;;;;;;;;;5005441;28;20102;-74
2022/06/07 07:39:49;;;;;;;6.80;2.42;;;;;;;;;;5005585;28;20053;-75
2022/06/07 07:42:15;;;;;;;8.25;3.00;;;;;;;;;;5006706;28;20069;-75
2022/06/07 07:44:41;;;;;;;9.80;3.30;;;;;;;;;;5007657;28;20121;-75
2022/06/07 07:47:08;;;;;;;8.02;2.50;;;;;;;;;;5012265;28;20042;-73
2022/06/07 07:49:34;;;;;;;8.48;2.47;;;;;;;;;;4978507;28;20046;-73
2022/06/07 07:52:00;;;;;;;7.28;3.15;;;;;;;;;;5008633;28;20050;-74
2022/06/07 07:54:26;;;;;;;10.10;2.88;;;;;;;;;;5007206;28;20046;-75
2022/06/07 07:56:54;;;;;;;8.88;2.63;;;;;;;;;;5001997;28;20058;-72
2022/06/07 07:59:21;;;;;;;9.65;2.55;;;;;;;;;;5002858;28;20388;-73
2022/06/07 08:01:49;;;;;;;7.45;2.65;;;;;;;;;;5003295;28;20565;-73
2022/06/07 08:04:15;;;;;;;9.68;2.88;;;;;;;;;;5003650;28;20046;-73
2022/06/07 08:06:41;;;;;;;9.27;2.65;;;;;;;;;;5002698;28;20069;-73
2022/06/07 08:09:08;;;;;;;7.97;2.78;;;;;;;;;;5002359;28;20073;-74
2022/06/07 08:11:35;;;;;;;11.27;3.00;;;;;;;;;;5002834;28;20051;-73
2022/06/07 08:14:02;;;;;;;8.80;3.08;;;;;;;;;;5016034;28;20050;-73
2022/06/07 08:16:28;;;;;;;8.57;3.15;;;;;;;;;;5004618;28;20093;-73
2022/06/07 08:18:54;;;;;;;7.82;2.42;;;;;;;;;;5013523;28;20045;-73
2022/06/07 08:21:26;;;;;;;6.78;2.45;;;;;;;;;;5002970;28;20053;-72
2022/06/07 08:23:53;;;;;;;8.77;2.63;;;;;;;;;;4998573;28;20388;-73
2022/06/07 08:26:19;;;;;;;6.60;2.67;;;;;;;;;;4998911;28;20046;-73
2022/06/07 08:28:46;;;;;;;8.18;2.10;;;;;;;;;;4997333;28;20045;-73
2022/06/07 08:31:13;;;;;;;5.60;2.22;;;;;;;;;;4997963;28;20046;-72
2022/06/07 08:39:09;;;;;;;4.90;2.10;;;;;;;;;;5009163;28;20061;-73
2022/06/07 08:41:38;;;;;;;7.80;2.40;;;;;;;;;;4998962;28;20031;-73
2022/06/07 08:44:26;;;;;;;8.40;2.20;;;;;;;;;;4977653;28;20059;-73
2022/06/07 08:46:53;;;;;;;6.63;2.30;;;;;;;;;;5003395;28;20053;-73
2022/06/07 08:49:19;;;;;;;8.98;2.63;;;;;;;;;;4997675;28;20042;-73
2022/06/07 08:51:45;;;;;;;5.85;2.20;;;;;;;;;;4996509;28;20042;-73
2022/06/07 08:54:17;;;;;;;9.38;2.70;;;;;;;;;;4996288;28;20043;-73
2022/06/07 08:56:44;;;;;;;8.85;2.40;;;;;;;;;;4997571;28;20430;-73
2022/06/07 08:59:19;;;;;;;6.07;2.30;;;;;;;;;;4997638;28;20057;-73
2022/06/07 09:01:48;;;;;;;5.05;1.60;;;;;;;;;;4993844;28;20053;-73
2022/06/07 09:04:21;;;;;;;5.80;2.20;;;;;;;;;;4977208;28;20043;-73
2022/06/07 09:06:49;;;;;;;5.82;2.20;;;;;;;;;;4977363;28;20070;-73
2022/06/07 09:09:16;;;;;;;5.25;2.00;;;;;;;;;;4976760;28;20062;-74
2022/06/07 09:14:30;;;;;;;6.53;2.10;;;;;;;;;;4977814;28;20051;-73
2022/06/07 09:16:56;;;;;;;12.13;2.70;;;;;;;;;;5010774;28;20053;-73
2022/06/07 09:19:25;;;;;;;7.80;2.40;;;;;;;;;;4996362;28;20077;-73
2022/06/07 09:21:52;;;;;;;11.50;3.08;;;;;;;;;;4994526;28;20406;-72
2022/06/07 09:24:24;;;;;;;7.15;2.53;;;;;;;;;;4993228;28;20509;-73
2022/06/07 09:26:50;;;;;;;6.60;3.13;;;;;;;;;;4994372;28;20046;-73
2022/06/07 09:29:19;;;;;;;7.40;2.72;;;;;;;;;;4994439;28;20045;-73
2022/06/07 09:31:47;;;;;;;8.32;3.08;;;;;;;;;;4994042;28;20114;-73
2022/06/07 09:34:18;;;;;;;8.07;3.35;;;;;;;;;;4994133;28;20042;-73
2022/06/07 09:36:47;;;;;;;8.48;3.00;;;;;;;;;;4994752;28;20050;-73
2022/06/07 09:39:27;;;;;;;12.20;3.30;;;;;;;;;;4995237;28;20078;-73
2022/06/07 09:41:57;;;;;;;9.13;3.15;;;;;;;;;;4995140;28;20100;-72
2022/06/07 09:44:29;;;;;;;9.18;3.13;;;;;;;;;;4995647;28;20042;-72
2022/06/07 09:47:00;;;;;;;10.13;2.97;;;;;;;;;;5003086;28;20046;-72
2022/06/07 09:49:37;;;;;;;8.27;3.33;;;;;;;;;;5009929;28;20046;-73
2022/06/07 09:52:20;;;;;;;8.75;3.20;;;;;;;;;;4998576;28;20051;-73
2022/06/07 09:54:47;;;;;;;7.28;2.70;;;;;;;;;;4999075;28;20050;-72
2022/06/07 09:57:13;;;;;;;7.05;2.80;;;;;;;;;;4998751;28;20042;-72
2022/06/07 09:59:42;;;;;;;8.40;3.05;;;;;;;;;;4998512;28;20125;-73
2022/06/07 10:02:27;;;;;;;9.10;3.05;;;;;;;;;;4997705;28;20499;-73
2022/06/07 10:04:56;;;;;;;10.38;3.13;;;;;;;;;;4996118;28;20062;-73
2022/06/07 10:07:40;;;;;;;9.30;2.90;;;;;;;;;;4998869;28;20054;-73
2022/06/07 10:10:25;;;;;;;7.25;2.58;;;;;;;;;;4998561;28;20089;-73
2022/06/07 10:13:10;;;;;;;8.18;2.60;;;;;;;;;;4999176;28;20073;-72
2022/06/07 10:15:48;;;;;;;10.02;2.80;;;;;;;;;;4998451;28;20129;-72
2022/06/07 10:18:33;;;;;;;10.98;2.92;;;;;;;;;;5001104;28;20030;-79
2022/06/07 10:20:59;;;;;;;6.85;2.80;;;;;;;;;;4998141;28;20133;-73
2022/06/07 10:23:28;;;;;;;7.78;3.15;;;;;;;;;;5000309;28;20076;-73
2022/06/07 10:25:57;;;;;;;9.52;2.97;;;;;;;;;;4998205;28;20050;-73
2022/06/07 10:28:26;;;;;;;8.20;2.90;;;;;;;;;;4996752;28;20046;-74
2022/06/07 10:31:11;;;;;;;5.57;2.30;;;;;;;;;;4995737;28;20109;-74
2022/06/07 10:33:48;;;;;;;10.25;2.40;;;;;;;;;;4996846;28;20164;-74
2022/06/07 10:36:17;;;;;;;7.18;2.30;;;;;;;;;;4996697;28;20058;-74
2022/06/07 10:38:52;;;;;;;8.90;3.00;;;;;;;;;;4993018;28;20411;-74
2022/06/07 10:41:26;;;;;;;6.97;2.83;;;;;;;;;;4994678;28;20050;-74
2022/06/07 10:43:57;;;;;;;6.45;2.95;;;;;;;;;;5011862;28;20388;-73
2022/06/07 10:46:24;;;;;;;6.63;2.50;;;;;;;;;;4996819;28;20073;-73
2022/06/07 10:48:56;;;;;;;5.97;2.50;;;;;;;;;;4996397;28;20462;-84
2022/06/07 10:54:12;;;;;;;7.03;3.03;;;;;;;;;;4981796;28;20047;-76
2022/06/07 10:56:45;;;;;;;8.40;2.78;;;;;;;;;;4983513;28;20089;-76
2022/06/07 10:59:26;;;;;;;8.30;2.78;;;;;;;;;;4994885;28;20529;-72
2022/06/07 11:02:15;;;;;;;9.18;2.72;;;;;;;;;;4997453;28;20050;-74
2022/06/07 11:10:31;;;;;;;13.43;2.97;;;;;;;;;;5004349;28;20088;-75
2022/06/07 11:13:00;;;;;;;8.90;3.03;;;;;;;;;;4997923;28;20039;-73
2022/06/07 11:15:34;;;;;;;9.88;2.90;;;;;;;;;;4974574;28;20055;-74
2022/06/07 11:18:07;;;;;;;11.90;3.03;;;;;;;;;;4976226;28;20122;-73
2022/06/07 11:20:34;;;;;;;6.68;2.83;;;;;;;;;;4984733;28;20113;-74
2022/06/07 11:23:03;;;;;;;6.45;2.40;;;;;;;;;;4996572;28;20042;-72
2022/06/07 11:25:29;;;;;;;8.77;2.70;;;;;;;;;;4997970;28;20038;-73
2022/06/07 11:27:59;;;;;;;9.27;2.95;;;;;;;;;;4994353;28;20050;-73
2022/06/07 11:30:40;;;;;;;7.68;2.50;;;;;;;;;;4995682;28;20121;-74
2022/06/07 11:33:26;;;;;;;7.15;2.63;;;;;;;;;;4978098;28;20053;-74
2022/06/07 11:35:53;;;;;;;5.93;2.10;;;;;;;;;;4993785;28;20466;-74
2022/06/07 11:38:20;;;;;;;9.23;2.53;;;;;;;;;;5002594;28;20121;-73
2022/06/07 11:40:46;;;;;;;7.03;2.42;;;;;;;;;;5014420;28;20046;-73
2022/06/07 11:43:31;;;;;;;5.13;2.50;;;;;;;;;;5014404;28;20096;-74
2022/06/07 11:45:58;;;;;;;7.53;2.47;;;;;;;;;;5013226;28;20038;-73
2022/06/07 11:48:24;;;;;;;5.25;2.40;;;;;;;;;;5012852;28;20069;-73
2022/06/07 11:50:57;;;;;;;5.22;2.38;;;;;;;;;;5005789;28;20084;-73
2022/06/07 11:53:25;;;;;;;7.20;2.45;;;;;;;;;;5003088;28;20056;-74
2022/06/07 11:55:55;;;;;;;6.10;2.08;;;;;;;;;;5013303;28;20136;-73
2022/06/07 11:58:41;;;;;;;4.13;2.00;;;;;;;;;;5012993;28;20449;-73
2022/06/07 12:01:22;;;;;;;5.10;1.90;;;;;;;;;;5012557;28;20084;-74
2022/06/07 12:04:06;;;;;;;4.25;1.83;;;;;;;;;;5014285;28;20073;-74
2022/06/07 12:06:33;;;;;;;4.22;1.70;;;;;;;;;;4993840;28;20054;-74
2022/06/07 12:09:01;;;;;;;6.43;2.17;;;;;;;;;;5007054;28;20081;-74
2022/06/07 12:11:32;;;;;;;5.00;2.00;;;;;;;;;;5014003;28;20048;-73
2022/06/07 12:14:02;;;;;;;3.80;1.80;;;;;;;;;;5004986;28;20060;-73
2022/06/07 12:16:39;;;;;;;4.53;1.90;;;;;;;;;;4994261;28;20133;-73
2022/06/07 12:19:26;;;;;;;7.22;2.50;;;;;;;;;;4993986;28;20046;-74
2022/06/07 12:21:55;;;;;;;7.20;2.10;;;;;;;;;;4993543;28;20440;-73
2022/06/07 12:24:22;;;;;;;5.05;1.98;;;;;;;;;;4993344;28;20051;-73
2022/06/07 12:26:48;;;;;;;6.82;2.20;;;;;;;;;;4993318;28;20534;-74
2022/06/07 12:29:14;;;;;;;6.25;2.00;;;;;;;;;;4993894;28;20058;-74
2022/06/07 12:31:49;;;;;;;7.20;2.55;;;;;;;;;;4994281;28;20105;-73
2022/06/07 12:34:29;;;;;;;4.78;1.85;;;;;;;;;;5013333;28;20062;-74
2022/06/07 12:37:04;;;;;;;4.72;2.00;;;;;;;;;;5008592;28;20502;-72
2022/06/07 12:39:31;;;;;;;5.93;2.40;;;;;;;;;;5020146;28;20042;-72
2022/06/07 12:41:57;;;;;;;4.82;2.15;;;;;;;;;;5019812;28;20072;-72
2022/06/07 12:44:25;;;;;;;7.10;2.30;;;;;;;;;;5018963;28;20049;-72
2022/06/07 12:46:52;;;;;;;4.05;1.88;;;;;;;;;;5020726;28;20046;-76
2022/06/07 12:49:41;;;;;;;7.45;2.42;;;;;;;;;;5004959;28;20076;-72
2022/06/07 12:52:13;;;;;;;5.18;2.15;;;;;;;;;;4998409;28;20094;-73
2022/06/07 12:54:39;;;;;;;4.75;2.00;;;;;;;;;;5000196;28;20054;-73
2022/06/07 12:57:21;;;;;;;10.13;2.42;;;;;;;;;;4998564;28;20089;-72
2022/06/07 13:00:10;;;;;;;6.38;1.90;;;;;;;;;;4998357;28;20053;-72
2022/06/07 13:02:41;;;;;;;5.07;2.00;;;;;;;;;;4977587;28;20065;-74
2022/06/07 13:05:16;;;;;;;7.25;2.40;;;;;;;;;;4981738;28;20054;-73
2022/06/07 13:07:54;;;;;;;8.18;2.10;;;;;;;;;;4999390;28;20056;-73
2022/06/07 13:10:31;;;;;;;5.05;1.95;;;;;;;;;;4997062;28;20039;-72
2022/06/07 13:12:59;;;;;;;5.43;2.10;;;;;;;;;;4997173;28;20050;-72
2022/06/07 13:15:27;;;;;;;7.93;2.20;;;;;;;;;;4998755;28;20121;-73
2022/06/07 13:17:59;;;;;;;5.90;2.13;;;;;;;;;;4995086;28;20049;-72
2022/06/07 13:20:32;;;;;;;9.15;2.17;;;;;;;;;;4988394;28;20050;-73
2022/06/07 13:22:58;;;;;;;5.15;2.10;;;;;;;;;;4989030;28;20419;-73
2022/06/07 13:25:26;;;;;;;5.07;2.17;;;;;;;;;;4998271;28;20078;-72
2022/06/07 13:28:06;;;;;;;7.93;2.45;;;;;;;;;;4998666;28;20406;-73
2022/06/07 13:30:32;;;;;;;9.18;2.15;;;;;;;;;;5000834;28;20101;-72
2022/06/07 13:33:01;;;;;;;5.57;2.10;;;;;;;;;;4983700;28;20050;-72
2022/06/07 13:35:29;;;;;;;4.95;2.05;;;;;;;;;;5000788;28;20054;-73
2022/06/07 13:38:05;;;;;;;5.45;2.00;;;;;;;;;;5002043;28;20088;-72
2022/06/07 13:40:34;;;;;;;4.38;2.10;;;;;;;;;;5000420;28;20046;-72
2022/06/07 13:43:29;;;;;;;5.07;2.28;;;;;;;;;;4999524;28;20503;-72
2022/06/07 13:45:56;;;;;;;4.70;2.05;;;;;;;;;;4994015;28;20066;-73
2022/06/07 13:53:21;;;;;;;5.25;1.98;;;;;;;;;;5001161;28;20058;-72
2022/06/07 13:54:12;;;;;;;2.67;1.80;;;;;;;;;;4978033;28;20504;-72
2022/06/07 13:56:38;;;;;;;3.13;1.70;;;;;;;;;;4994835;28;20495;-72
2022/06/07 13:59:04;;;;;;;5.40;1.95;;;;;;;;;;5008306;28;20038;-72
2022/06/07 14:01:38;;;;;;;3.95;2.20;;;;;;;;;;5006920;28;20073;-73
2022/06/07 14:04:14;;;;;;;4.00;2.20;;;;;;;;;;4996078;28;20072;-74
2022/06/07 14:06:42;;;;;;;7.45;2.22;;;;;;;;;;4959534;28;1097159;-73
2022/06/07 14:09:22;;;;;;;3.92;2.17;;;;;;;;;;4998008;28;20050;-74
2022/06/07 14:11:49;;;;;;;5.13;2.13;;;;;;;;;;4996978;28;20050;-73
2022/06/07 14:14:15;;;;;;;3.80;2.08;;;;;;;;;;4996697;28;20050;-72
2022/06/07 14:16:44;;;;;;;6.63;2.22;;;;;;;;;;4997174;28;20454;-74
2022/06/07 14:19:22;;;;;;;5.45;2.20;;;;;;;;;;5001052;28;20133;-74
2022/06/07 14:21:49;;;;;;;6.88;2.33;;;;;;;;;;4999414;28;20042;-79
2022/06/07 14:24:17;;;;;;;4.97;2.50;;;;;;;;;;4993605;28;20120;-78
2022/06/07 14:26:46;;;;;;;5.35;2.40;;;;;;;;;;5002847;28;20046;-75
2022/06/07 14:29:12;;;;;;;10.15;2.70;;;;;;;;;;4995680;28;20042;-74
2022/06/07 14:31:39;;;;;;;8.02;2.45;;;;;;;;;;4995221;28;20182;-74
2022/06/07 14:34:13;;;;;;;9.80;2.72;;;;;;;;;;4995222;28;20098;-73
2022/06/07 14:36:39;;;;;;;7.20;3.28;;;;;;;;;;4998048;28;20058;-74
2022/06/07 14:39:05;;;;;;;9.75;3.08;;;;;;;;;;4997684;28;20052;-74
2022/06/07 14:41:31;;;;;;;12.18;3.53;;;;;;;;;;4999794;28;20049;-74
2022/06/07 14:43:57;;;;;;;10.05;2.90;;;;;;;;;;4995080;28;20435;-74
2022/06/07 14:46:24;;;;;;;14.00;3.33;;;;;;;;;;4995640;28;20527;-74
2022/06/07 14:49:05;;;;;;;6.45;3.13;;;;;;;;;;4996905;28;20458;-79
2022/06/07 14:51:34;;;;;;;7.50;3.00;;;;;;;;;;4994471;28;20046;-74
2022/06/07 14:54:01;;;;;;;10.55;3.17;;;;;;;;;;4996960;28;20152;-74
2022/06/07 14:56:35;;;;;;;8.80;3.30;;;;;;;;;;5000995;28;20050;-74
2022/06/07 14:59:01;;;;;;;9.18;3.10;;;;;;;;;;4995236;28;20482;-74
2022/06/07 15:01:36;;;;;;;6.40;2.90;;;;;;;;;;4995676;28;20074;-74
2022/06/07 15:04:03;;;;;;;7.10;2.70;;;;;;;;;;4994253;28;20041;-74
2022/06/07 15:06:31;;;;;;;7.78;3.13;;;;;;;;;;4994218;28;20058;-74
2022/06/07 15:08:57;;;;;;;6.45;3.00;;;;;;;;;;4994888;28;20093;-74
2022/06/07 15:11:33;;;;;;;6.40;3.22;;;;;;;;;;4995269;28;20088;-74
2022/06/07 15:14:00;;;;;;;8.90;3.08;;;;;;;;;;4995528;28;20118;-75
2022/06/07 15:16:28;;;;;;;8.00;3.17;;;;;;;;;;4994277;28;20042;-74
2022/06/07 15:18:54;;;;;;;7.57;3.20;;;;;;;;;;4994548;28;20458;-75